Time;durP1;ratioP1;P1;durP2;ratioP2;P2;SDS_P1;SDS_P2;PMS_P1;PMS_P2;Temp;Humidity;BMP_temperature;BMP_pressure;BME280_temperature;BME280_humidity;BME280_pressure;Samples;Min_cycle;Max_cycle;Signal;HPM_P1;HPM_P2
2022/01/31 00:01:23;;;;;;;8.75;8.25;;;;;;;3.60;80.30;99527.88;5011628;28;20038;-67
2022/01/31 00:03:49;;;;;;;7.57;7.18;;;;;;;3.70;79.82;99537.44;5011059;28;20042;-68
2022/01/31 00:06:14;;;;;;;8.10;7.70;;;;;;;3.69;80.42;99531.38;5012895;28;20036;-68
2022/01/31 00:08:40;;;;;;;8.13;7.72;;;;;;;3.67;80.56;99535.09;4989442;28;20029;-68
2022/01/31 00:11:06;;;;;;;7.90;7.50;;;;;;;3.71;80.51;99534.66;5009874;28;20038;-67
2022/01/31 00:13:39;;;;;;;8.13;7.72;;;;;;;3.71;80.10;99536.44;5007243;28;20423;-68
2022/01/31 00:16:07;;;;;;;8.00;7.60;;;;;;;3.70;79.71;99537.44;5009178;28;20022;-68
2022/01/31 00:18:32;;;;;;;7.78;7.38;;;;;;;3.70;79.85;99535.63;4994370;28;20060;-67
2022/01/31 00:20:58;;;;;;;7.90;7.50;;;;;;;3.66;79.82;99546.56;5009637;28;20053;-67
2022/01/31 00:23:23;;;;;;;8.15;7.75;;;;;;;3.64;80.24;99548.53;5008028;28;20028;-66
2022/01/31 00:25:49;;;;;;;7.70;7.30;;;;;;;3.64;79.91;99551.16;5004148;28;20478;-67
2022/01/31 00:28:14;;;;;;;8.68;8.18;;;;;;;3.56;80.60;99521.28;5010243;28;20037;-67
2022/01/31 00:30:40;;;;;;;7.68;7.28;;;;;;;3.64;80.25;99535.44;5008523;28;20132;-67
2022/01/31 00:33:05;;;;;;;7.80;7.40;;;;;;;3.56;80.52;99536.19;5009361;28;20591;-67
2022/01/31 00:35:31;;;;;;;7.75;7.35;;;;;;;3.51;80.14;99534.03;5009049;28;20108;-67
2022/01/31 00:37:57;;;;;;;7.68;7.28;;;;;;;3.57;80.14;99540.47;5009429;28;20026;-67
2022/01/31 00:40:22;;;;;;;8.65;8.15;;;;;;;3.55;79.95;99534.56;5007931;28;20025;-67
2022/01/31 00:42:49;;;;;;;7.88;7.47;;;;;;;3.48;80.12;99544.00;5007772;28;20022;-67
2022/01/31 00:45:20;;;;;;;8.45;7.95;;;;;;;3.42;80.75;99534.94;5005458;28;20042;-67
2022/01/31 00:47:49;;;;;;;7.70;7.30;;;;;;;3.44;80.96;99534.78;5006469;28;20038;-67
2022/01/31 00:50:18;;;;;;;8.32;7.85;;;;;;;3.36;81.01;99537.34;5007768;28;20017;-67
2022/01/31 00:52:45;;;;;;;7.80;7.40;;;;;;;3.33;81.62;99528.00;5003303;28;20022;-67
2022/01/31 00:55:13;;;;;;;7.43;7.03;;;;;;;3.28;81.80;99538.94;5010147;28;20041;-68
2022/01/31 00:57:40;;;;;;;8.00;7.60;;;;;;;3.22;81.94;99529.06;5009013;28;20069;-68
2022/01/31 01:00:09;;;;;;;7.82;7.43;;;;;;;3.21;81.62;99527.41;5009868;28;20033;-67
2022/01/31 01:02:34;;;;;;;7.88;7.47;;;;;;;3.24;82.35;99536.78;5011129;28;20473;-68
2022/01/31 01:05:00;;;;;;;8.40;7.90;;;;;;;3.21;82.31;99542.31;5008154;28;20040;-67
2022/01/31 01:07:25;;;;;;;8.00;7.60;;;;;;;3.18;82.44;99538.22;5011924;28;20079;-67
2022/01/31 01:09:51;;;;;;;8.20;7.78;;;;;;;3.13;82.39;99529.97;5010298;28;20113;-68
2022/01/31 01:12:18;;;;;;;8.13;7.72;;;;;;;3.11;83.03;99534.56;5006919;28;20057;-68
2022/01/31 01:14:45;;;;;;;7.85;7.45;;;;;;;3.06;83.39;99531.56;5012594;28;20083;-68
2022/01/31 01:17:11;;;;;;;8.52;8.02;;;;;;;3.05;84.30;99529.91;4992713;28;20225;-67
2022/01/31 01:19:36;;;;;;;7.47;7.15;;;;;;;2.98;83.64;99521.81;5009399;28;20593;-67
2022/01/31 01:22:03;;;;;;;7.93;7.53;;;;;;;2.94;84.79;99530.97;5009070;28;20653;-68
2022/01/31 01:24:28;;;;;;;8.45;7.97;;;;;;;2.82;84.39;99510.38;5008835;28;20087;-68
2022/01/31 01:26:54;;;;;;;7.97;7.57;;;;;;;2.82;84.77;99521.69;5008892;28;20034;-68
2022/01/31 01:29:20;;;;;;;8.23;7.80;;;;;;;2.82;84.89;99515.63;5011127;28;20074;-67
2022/01/31 01:31:48;;;;;;;8.73;8.23;;;;;;;2.82;84.95;99521.69;5008554;28;20026;-68
2022/01/31 01:34:13;;;;;;;7.60;7.20;;;;;;;2.73;86.10;99512.13;5008579;28;20413;-65
2022/01/31 01:36:41;;;;;;;8.35;7.95;;;;;;;2.70;86.49;99515.84;5008862;28;20021;-67
2022/01/31 01:39:06;;;;;;;8.07;7.68;;;;;;;2.68;86.62;99520.41;5010754;28;20038;-66
2022/01/31 01:41:32;;;;;;;8.82;8.32;;;;;;;2.77;86.71;99534.41;5007474;28;20370;-68
2022/01/31 01:43:58;;;;;;;7.78;7.38;;;;;;;2.73;86.35;99533.88;5007511;28;20034;-68
2022/01/31 01:46:24;;;;;;;7.25;6.95;;;;;;;2.66;87.33;99535.44;5010604;28;20030;-67
2022/01/31 01:48:49;;;;;;;8.23;7.82;;;;;;;2.65;87.34;99540.84;5003008;28;20049;-68
2022/01/31 01:51:16;;;;;;;7.50;7.10;;;;;;;2.66;88.08;99548.53;5002867;28;20498;-69
2022/01/31 01:53:41;;;;;;;7.93;7.53;;;;;;;2.69;87.36;99547.41;5006493;28;20401;-68
2022/01/31 01:56:08;;;;;;;8.75;8.25;;;;;;;2.69;86.78;99543.00;5008278;28;20038;-68
2022/01/31 01:58:42;;;;;;;7.88;7.47;;;;;;;2.61;87.26;99539.47;4992811;28;20022;-67
2022/01/31 02:01:09;;;;;;;7.88;7.47;;;;;;;2.51;87.41;99534.31;5007867;28;20030;-67
2022/01/31 02:03:36;;;;;;;8.70;8.20;;;;;;;2.56;87.68;99541.72;5005832;28;20049;-67
2022/01/31 02:06:03;;;;;;;8.60;8.10;;;;;;;2.56;87.05;99541.72;5007165;28;20054;-67
2022/01/31 02:08:38;;;;;;;7.70;7.30;;;;;;;2.62;85.70;99536.72;4998690;28;20026;-66
2022/01/31 02:11:04;;;;;;;7.45;7.10;;;;;;;2.68;85.32;99540.53;5006190;28;20038;-67
2022/01/31 02:13:30;;;;;;;8.68;8.18;;;;;;;2.68;85.79;99535.28;5006948;28;20044;-66
2022/01/31 02:15:55;;;;;;;8.88;8.38;;;;;;;2.67;85.85;99537.09;5009354;28;20026;-67
2022/01/31 02:18:25;;;;;;;8.10;7.70;;;;;;;2.68;86.14;99538.75;5001988;28;20062;-67
2022/01/31 02:20:50;;;;;;;8.40;7.95;;;;;;;2.70;85.41;99541.19;5002331;28;20121;-68
2022/01/31 02:23:17;;;;;;;8.05;7.65;;;;;;;2.65;86.05;99539.03;5004122;28;20175;-68
2022/01/31 02:25:57;;;;;;;8.20;7.80;;;;;;;2.66;86.03;99542.47;4992531;28;20021;-68
2022/01/31 02:28:28;;;;;;;8.07;7.68;;;;;;;2.69;86.60;99545.63;4994670;28;20041;-68
2022/01/31 02:30:54;;;;;;;7.85;7.45;;;;;;;2.73;86.49;99543.53;5008255;28;20112;-67
2022/01/31 02:33:20;;;;;;;8.32;7.85;;;;;;;2.73;85.84;99543.53;5007194;28;20030;-68
2022/01/31 02:35:52;;;;;;;8.80;8.30;;;;;;;2.77;86.44;99555.34;5006826;28;20022;-69
2022/01/31 02:38:17;;;;;;;8.13;7.72;;;;;;;2.85;86.37;99559.84;5004163;28;20030;-69
2022/01/31 02:40:45;;;;;;;7.90;7.50;;;;;;;2.84;85.93;99547.72;4991252;28;20021;-68
2022/01/31 02:43:20;;;;;;;7.65;7.32;;;;;;;2.84;86.12;99547.72;5009529;28;20026;-67
2022/01/31 02:45:46;;;;;;;7.85;7.45;;;;;;;2.73;86.81;99548.78;5006881;28;20444;-67
2022/01/31 02:48:14;;;;;;;8.50;8.00;;;;;;;2.84;87.11;99552.97;5007523;28;20052;-67
2022/01/31 02:50:40;;;;;;;8.05;7.65;;;;;;;2.80;86.41;99541.16;5005882;28;20026;-67
2022/01/31 02:53:30;;;;;;;8.88;8.38;;;;;;;2.84;86.92;99552.97;5007760;28;20072;-67
2022/01/31 02:55:58;;;;;;;8.25;7.80;;;;;;;2.83;86.78;99553.94;4989713;28;20034;-67
2022/01/31 02:58:26;;;;;;;8.02;7.63;;;;;;;2.77;86.82;99552.72;5008352;28;20030;-66
2022/01/31 03:00:54;;;;;;;7.70;7.30;;;;;;;2.81;86.37;99551.47;5004031;28;20041;-68
2022/01/31 03:03:20;;;;;;;8.00;7.60;;;;;;;2.81;86.47;99556.72;5013781;28;20062;-66
2022/01/31 03:05:46;;;;;;;7.85;7.45;;;;;;;2.86;85.72;99564.09;4993860;28;20041;-68
2022/01/31 03:08:11;;;;;;;8.60;8.10;;;;;;;2.87;85.71;99561.38;5009028;28;20026;-67
2022/01/31 03:10:37;;;;;;;7.80;7.40;;;;;;;2.89;86.17;99575.13;5007983;28;20462;-66
2022/01/31 03:13:03;;;;;;;7.93;7.53;;;;;;;2.96;85.89;99586.66;5006888;28;20420;-67
2022/01/31 03:15:29;;;;;;;7.80;7.40;;;;;;;2.92;85.75;99603.63;5001857;28;20032;-67
2022/01/31 03:17:54;;;;;;;7.65;7.25;;;;;;;2.86;85.17;99601.59;4991859;28;20397;-68
2022/01/31 03:20:23;;;;;;;7.95;7.55;;;;;;;2.92;84.84;99606.25;5006580;28;20037;-68
2022/01/31 03:22:48;;;;;;;8.10;7.70;;;;;;;3.02;83.82;99609.66;5007415;28;20120;-68
2022/01/31 03:25:15;;;;;;;8.50;8.00;;;;;;;3.08;83.03;99597.72;5006538;28;20065;-68
2022/01/31 03:27:42;;;;;;;7.72;7.32;;;;;;;3.07;83.84;99603.94;5004876;28;20586;-68
2022/01/31 03:30:11;;;;;;;8.45;7.95;;;;;;;2.99;84.53;99616.97;5010091;28;20177;-68
2022/01/31 03:32:36;;;;;;;8.15;7.75;;;;;;;2.95;86.12;99616.44;5011697;28;20037;-68
2022/01/31 03:35:03;;;;;;;7.93;7.53;;;;;;;2.92;86.35;99614.09;5008363;28;20038;-68
2022/01/31 03:37:28;;;;;;;7.97;7.57;;;;;;;3.03;87.17;99636.66;5009717;28;20029;-67
2022/01/31 03:39:54;;;;;;;7.47;7.18;;;;;;;2.87;89.01;99633.88;4994318;28;20056;-67
2022/01/31 03:42:20;;;;;;;8.85;8.35;;;;;;;2.48;96.17;99637.50;5008874;28;20571;-67
2022/01/31 03:44:47;;;;;;;8.00;7.60;;;;;;;2.34;98.12;99637.16;5011318;28;20036;-69
2022/01/31 03:47:14;;;;;;;8.43;7.95;;;;;;;2.33;99.70;99643.34;5010309;28;20034;-68
2022/01/31 03:49:39;;;;;;;8.43;8.00;;;;;;;2.34;100.00;99653.69;5010268;28;20499;-68
2022/01/31 03:52:05;;;;;;;8.32;7.93;;;;;;;2.32;100.00;99660.03;4996814;28;20113;-67
2022/01/31 03:54:30;;;;;;;8.02;7.63;;;;;;;2.38;100.00;99660.28;5011787;28;20056;-68
2022/01/31 03:56:56;;;;;;;8.27;7.88;;;;;;;2.47;100.00;99674.31;4993471;28;20029;-68
2022/01/31 03:59:23;;;;;;;8.90;8.40;;;;;;;2.45;100.00;99679.69;5010180;28;20697;-68
2022/01/31 04:01:51;;;;;;;7.80;7.40;;;;;;;2.42;100.00;99676.50;5011567;28;20030;-67
2022/01/31 04:04:16;;;;;;;9.35;8.75;;;;;;;2.39;100.00;99669.78;4998253;28;20094;-67
2022/01/31 04:06:42;;;;;;;8.57;8.07;;;;;;;2.31;100.00;99653.97;4994930;28;20433;-68
2022/01/31 04:09:08;;;;;;;8.20;7.80;;;;;;;2.19;100.00;99642.84;4994878;28;20145;-69
2022/01/31 04:11:34;;;;;;;8.50;8.00;;;;;;;2.23;100.00;99656.47;5010667;28;20033;-68
2022/01/31 04:13:59;;;;;;;8.48;7.97;;;;;;;2.19;100.00;99653.31;5010389;28;20148;-70
2022/01/31 04:16:26;;;;;;;7.65;7.25;;;;;;;2.12;100.00;99633.09;5006291;28;20030;-66
2022/01/31 04:18:52;;;;;;;8.93;8.43;;;;;;;2.15;100.00;99630.22;5006844;28;20041;-72
2022/01/31 04:21:17;;;;;;;8.15;7.75;;;;;;;2.20;100.00;99639.28;4990897;28;20049;-63
2022/01/31 04:23:43;;;;;;;8.52;8.02;;;;;;;2.23;100.00;99635.56;5010552;28;20080;-63
2022/01/31 04:26:13;;;;;;;9.50;8.90;;;;;;;2.16;100.00;99642.31;5008106;28;20072;-64
2022/01/31 04:28:43;;;;;;;8.32;7.93;;;;;;;2.14;100.00;99647.69;5004776;28;20037;-63
2022/01/31 04:31:26;;;;;;;8.32;7.85;;;;;;;2.10;100.00;99646.31;5009747;28;20030;-63
2022/01/31 04:33:52;;;;;;;7.80;7.40;;;;;;;2.15;100.00;99656.38;5009538;28;20034;-64
2022/01/31 04:36:18;;;;;;;8.30;7.90;;;;;;;2.09;100.00;99652.53;5013964;28;20049;-63
2022/01/31 04:38:46;;;;;;;8.30;7.82;;;;;;;2.17;100.00;99654.44;5009119;28;20030;-63
2022/01/31 04:41:12;;;;;;;8.93;8.43;;;;;;;2.11;100.00;99660.22;5009078;28;20043;-66
2022/01/31 04:43:38;;;;;;;7.68;7.28;;;;;;;2.15;100.00;99665.03;5008244;28;20034;-62
2022/01/31 04:46:06;;;;;;;7.70;7.30;;;;;;;2.15;100.00;99664.22;5005057;28;20106;-62
2022/01/31 04:48:32;;;;;;;8.38;7.88;;;;;;;2.21;100.00;99659.25;4991147;28;20112;-63
2022/01/31 04:50:58;;;;;;;8.70;8.20;;;;;;;2.27;100.00;99664.84;4997270;28;20033;-63
2022/01/31 04:53:23;;;;;;;8.15;7.75;;;;;;;2.27;100.00;99670.09;5004270;28;20031;-62
2022/01/31 04:55:49;;;;;;;8.60;8.10;;;;;;;2.23;100.00;99674.81;5013131;28;20022;-62
2022/01/31 04:58:15;;;;;;;7.45;7.15;;;;;;;2.28;100.00;99680.44;5012976;28;20026;-65
2022/01/31 05:00:40;;;;;;;7.63;7.22;;;;;;;2.34;100.00;99689.50;4996953;28;20108;-62
2022/01/31 05:03:13;;;;;;;8.40;7.90;;;;;;;2.35;100.00;99670.19;5014551;28;20504;-63
2022/01/31 05:05:42;;;;;;;8.25;7.82;;;;;;;2.22;100.00;99662.69;5009984;28;20027;-61
2022/01/31 05:08:08;;;;;;;9.10;8.57;;;;;;;2.28;99.84;99667.34;5009843;28;20030;-62
2022/01/31 05:10:34;;;;;;;8.07;7.68;;;;;;;2.31;98.33;99671.47;5015581;28;20397;-62
2022/01/31 05:13:01;;;;;;;8.20;7.78;;;;;;;2.29;95.01;99678.66;5014306;28;20445;-62
2022/01/31 05:15:27;;;;;;;7.95;7.55;;;;;;;2.33;93.36;99682.63;4993583;28;20496;-61
2022/01/31 05:17:52;;;;;;;9.38;8.77;;;;;;;2.36;93.06;99688.41;5017082;28;20075;-65
2022/01/31 05:20:18;;;;;;;8.98;8.40;;;;;;;2.32;92.48;99679.16;5002945;28;20037;-62
2022/01/31 05:22:44;;;;;;;9.35;8.75;;;;;;;2.40;92.48;99688.94;5000506;28;20063;-63
2022/01/31 05:25:10;;;;;;;8.63;8.13;;;;;;;2.40;91.98;99689.75;4999236;28;20038;-63
2022/01/31 05:27:35;;;;;;;9.52;8.93;;;;;;;2.41;92.46;99701.03;5011287;28;20030;-62
2022/01/31 05:30:02;;;;;;;8.50;8.00;;;;;;;2.34;92.46;99692.94;5008550;28;20060;-62
2022/01/31 05:32:27;;;;;;;8.82;8.32;;;;;;;2.37;91.34;99697.06;5017177;28;20382;-62
2022/01/31 05:34:53;;;;;;;8.63;8.13;;;;;;;2.42;92.08;99700.06;5010629;28;20036;-62
2022/01/31 05:37:18;;;;;;;8.60;8.10;;;;;;;2.38;92.26;99704.78;5005548;28;20498;-63
2022/01/31 05:39:45;;;;;;;7.93;7.53;;;;;;;2.35;94.18;99705.06;5009893;28;20036;-63
2022/01/31 05:42:11;;;;;;;8.30;7.80;;;;;;;2.37;94.09;99712.78;5007415;28;20042;-62
2022/01/31 05:44:36;;;;;;;9.10;8.55;;;;;;;2.45;95.07;99705.84;4998927;28;20568;-63
2022/01/31 05:47:02;;;;;;;9.63;9.02;;;;;;;2.32;94.58;99702.72;5010800;28;20030;-64
2022/01/31 05:49:28;;;;;;;8.80;8.30;;;;;;;2.44;93.25;99716.47;5000991;28;20030;-66
2022/01/31 05:52:01;;;;;;;8.52;8.02;;;;;;;2.31;93.81;99705.50;5004866;28;20111;-65
2022/01/31 05:54:27;;;;;;;8.73;8.23;;;;;;;2.32;93.87;99715.81;5004492;28;20025;-64
2022/01/31 05:56:56;;;;;;;8.90;8.40;;;;;;;2.27;94.86;99712.78;5007441;28;20440;-64
2022/01/31 05:59:22;;;;;;;9.35;8.75;;;;;;;2.22;94.74;99699.31;5006058;28;20068;-66
2022/01/31 06:01:48;;;;;;;10.13;9.43;;;;;;;2.34;95.02;99706.03;5387206;22;20045;-64
2022/01/31 06:04:13;;;;;;;8.43;7.93;;;;;;;2.33;94.74;99706.16;5048797;28;20509;-66
2022/01/31 06:06:39;;;;;;;8.88;8.35;;;;;;;2.32;94.66;99710.56;5049704;28;20492;-65
2022/01/31 06:09:05;;;;;;;8.95;8.45;;;;;;;2.28;95.42;99713.59;5048284;28;20028;-65
2022/01/31 06:11:33;;;;;;;8.65;8.15;;;;;;;2.21;94.94;99693.25;5051719;28;20032;-65
2022/01/31 06:14:00;;;;;;;9.20;8.60;;;;;;;2.33;95.39;99703.56;5050070;28;20064;-66
2022/01/31 06:16:27;;;;;;;8.55;8.07;;;;;;;2.28;95.74;99701.38;5043838;28;20025;-66
2022/01/31 06:18:52;;;;;;;8.65;8.15;;;;;;;2.37;94.57;99707.53;5049673;28;20074;-65
2022/01/31 06:21:17;;;;;;;8.82;8.32;;;;;;;2.38;94.32;99701.34;5050118;28;20029;-65
2022/01/31 06:23:43;;;;;;;8.80;8.30;;;;;;;2.42;93.59;99693.06;5048948;28;20056;-65
2022/01/31 06:26:09;;;;;;;8.70;8.20;;;;;;;2.46;93.49;99704.88;5050710;28;20047;-66
2022/01/31 06:28:35;;;;;;;9.13;8.55;;;;;;;2.39;92.53;99690.72;5050834;28;20056;-65
2022/01/31 06:31:01;;;;;;;8.25;7.78;;;;;;;2.51;91.83;99707.09;5039062;28;20033;-64
2022/01/31 06:33:26;;;;;;;8.30;7.80;;;;;;;2.51;91.61;99701.03;5042758;28;20052;-65
2022/01/31 06:35:52;;;;;;;8.55;8.05;;;;;;;2.49;90.32;99703.78;5047842;28;20493;-65
2022/01/31 06:38:18;;;;;;;9.27;8.68;;;;;;;2.59;89.59;99709.00;5049241;28;20028;-66
2022/01/31 06:40:43;;;;;;;8.02;7.63;;;;;;;2.59;90.28;99719.47;5051390;28;20562;-65
2022/01/31 06:43:09;;;;;;;8.18;7.78;;;;;;;2.63;88.92;99729.50;5051752;28;20059;-65
2022/01/31 06:45:34;;;;;;;8.93;8.40;;;;;;;2.60;88.74;99721.94;5048380;28;20033;-64
2022/01/31 06:48:00;;;;;;;8.77;8.27;;;;;;;2.63;88.50;99734.72;5049062;28;20052;-65
2022/01/31 06:50:26;;;;;;;9.10;8.55;;;;;;;2.56;87.96;99733.66;5051142;28;20037;-66
2022/01/31 06:52:55;;;;;;;7.95;7.55;;;;;;;2.54;88.16;99730.34;5051196;28;20061;-66
2022/01/31 06:55:21;;;;;;;8.00;7.60;;;;;;;2.59;88.48;99730.75;5050963;28;20025;-65
2022/01/31 06:57:51;;;;;;;7.97;7.57;;;;;;;2.63;89.44;99741.75;5048090;28;20457;-64
2022/01/31 07:00:19;;;;;;;9.52;8.93;;;;;;;2.68;89.82;99742.16;5048534;28;20024;-64
2022/01/31 07:02:49;;;;;;;9.18;8.60;;;;;;;2.65;90.05;99743.28;5052303;28;20522;-64
2022/01/31 07:05:16;;;;;;;8.00;7.60;;;;;;;2.70;90.62;99741.03;5054740;28;20036;-64
2022/01/31 07:07:42;;;;;;;8.50;8.05;;;;;;;2.84;89.23;99738.94;5054583;28;20063;-66
2022/01/31 07:10:09;;;;;;;9.02;8.50;;;;;;;2.82;87.36;99731.22;5054780;28;20025;-65
2022/01/31 07:12:39;;;;;;;8.18;7.78;;;;;;;2.93;86.94;99738.88;5046017;28;20033;-64
2022/01/31 07:15:07;;;;;;;8.27;7.88;;;;;;;2.99;86.54;99743.53;5054039;28;20046;-66
2022/01/31 07:17:35;;;;;;;8.65;8.15;;;;;;;3.02;86.16;99747.69;5057503;28;20025;-65
2022/01/31 07:20:03;;;;;;;8.57;8.07;;;;;;;3.05;86.83;99742.13;5056380;28;20036;-64
2022/01/31 07:22:34;;;;;;;8.80;8.30;;;;;;;3.05;86.43;99748.19;5053337;28;20078;-64
2022/01/31 07:25:05;;;;;;;8.15;7.75;;;;;;;3.07;84.86;99739.38;5054963;28;20037;-65
2022/01/31 07:27:31;;;;;;;8.65;8.15;;;;;;;2.96;84.59;99716.81;5041298;28;20107;-64
2022/01/31 07:29:56;;;;;;;8.77;8.27;;;;;;;3.07;84.41;99739.38;5052070;28;20111;-65
2022/01/31 07:32:23;;;;;;;9.38;8.77;;;;;;;3.14;83.10;99746.50;5053289;28;20112;-65
2022/01/31 07:34:53;;;;;;;9.55;8.95;;;;;;;3.24;83.04;99743.84;5054801;28;20372;-64
2022/01/31 07:37:19;;;;;;;8.07;7.68;;;;;;;3.27;82.85;99736.50;5054548;28;20024;-64
2022/01/31 07:39:45;;;;;;;8.73;8.23;;;;;;;3.28;83.50;99745.19;5054476;28;20486;-65
2022/01/31 07:42:10;;;;;;;8.38;7.90;;;;;;;3.27;84.12;99735.69;5053888;28;20116;-66
2022/01/31 07:44:36;;;;;;;8.77;8.27;;;;;;;3.29;84.55;99731.09;5054442;28;20041;-65
2022/01/31 07:47:03;;;;;;;7.95;7.55;;;;;;;3.24;85.29;99741.22;5053974;28;20029;-64
2022/01/31 07:49:29;;;;;;;7.90;7.50;;;;;;;3.35;84.93;99746.25;5053583;28;20043;-65
2022/01/31 07:51:56;;;;;;;7.90;7.50;;;;;;;3.28;84.69;99745.19;5055028;28;20037;-65
2022/01/31 07:54:22;;;;;;;8.35;7.88;;;;;;;3.21;85.58;99742.31;5053749;28;20445;-65
2022/01/31 07:56:47;;;;;;;8.50;8.00;;;;;;;3.36;85.28;99747.91;5051720;28;20029;-64
2022/01/31 07:59:13;;;;;;;8.00;7.60;;;;;;;3.38;85.34;99747.75;5053777;28;20108;-65
2022/01/31 08:01:39;;;;;;;8.43;7.93;;;;;;;3.38;84.86;99738.09;5054961;28;20063;-64
2022/01/31 08:04:04;;;;;;;9.68;9.05;;;;;;;3.39;85.02;99746.78;5055064;28;20025;-66
2022/01/31 08:06:29;;;;;;;8.20;7.80;;;;;;;3.37;84.36;99757.41;5053513;28;20550;-66
2022/01/31 08:08:55;;;;;;;8.48;7.97;;;;;;;3.48;84.60;99753.75;5054851;28;20056;-65
2022/01/31 08:11:23;;;;;;;9.27;8.68;;;;;;;3.57;83.82;99748.44;5047089;28;20034;-65
2022/01/31 08:13:54;;;;;;;7.93;7.53;;;;;;;3.60;83.08;99750.78;5052616;28;20033;-65
2022/01/31 08:16:20;;;;;;;8.43;7.93;;;;;;;3.62;83.75;99752.44;5038223;28;20093;-65
2022/01/31 08:18:46;;;;;;;8.52;8.02;;;;;;;3.65;82.43;99752.94;5055319;28;20752;-65
2022/01/31 08:21:14;;;;;;;9.30;8.70;;;;;;;3.54;83.13;99756.63;5053479;28;20471;-65
2022/01/31 08:23:40;;;;;;;8.45;7.95;;;;;;;3.49;83.30;99748.38;5043906;28;20040;-65
2022/01/31 08:26:11;;;;;;;7.85;7.45;;;;;;;3.43;84.17;99756.00;5055122;28;20051;-66
2022/01/31 08:31:40;;;;;;;8.52;8.02;;;;;;;3.44;83.90;99762.88;5008677;28;20194;-65
2022/01/31 08:35:47;;;;;;;7.95;7.55;;;;;;;3.41;84.02;99773.69;5008931;28;20459;-65
2022/01/31 08:36:55;;;;;;;8.77;8.27;;;;;;;3.47;84.10;99762.59;5027840;28;20080;-65
2022/01/31 08:39:21;;;;;;;8.95;8.43;;;;;;;3.42;82.81;99755.19;5044768;28;20061;-66
2022/01/31 08:41:51;;;;;;;9.25;8.65;;;;;;;3.39;83.09;99754.66;5049535;28;20036;-66
2022/01/31 08:44:18;;;;;;;8.10;7.70;;;;;;;3.59;82.83;99770.09;5054407;28;20120;-64
2022/01/31 08:46:46;;;;;;;7.97;7.57;;;;;;;3.52;83.03;99770.84;5052613;28;20107;-64
2022/01/31 08:49:13;;;;;;;8.70;8.20;;;;;;;3.47;82.99;99778.34;5052712;28;20056;-64
2022/01/31 08:51:39;;;;;;;7.93;7.53;;;;;;;3.56;82.85;99786.13;5051620;28;20469;-64
2022/01/31 08:54:06;;;;;;;8.70;8.20;;;;;;;3.56;82.11;99778.28;5053651;28;20052;-64
2022/01/31 08:56:38;;;;;;;8.25;7.82;;;;;;;3.71;81.96;99769.91;5051043;28;20036;-69
2022/01/31 08:59:05;;;;;;;8.88;8.38;;;;;;;3.81;80.75;99760.13;5053638;28;20503;-65
2022/01/31 09:01:31;;;;;;;7.60;7.20;;;;;;;3.90;81.45;99763.69;5052549;28;20033;-65
2022/01/31 09:04:01;;;;;;;8.35;7.85;;;;;;;3.99;80.45;99762.78;5052466;28;20031;-65
2022/01/31 09:06:30;;;;;;;7.95;7.55;;;;;;;3.99;80.09;99760.97;5048345;28;20047;-65
2022/01/31 09:08:57;;;;;;;7.80;7.40;;;;;;;4.27;79.09;99718.88;5053985;28;20025;-65
2022/01/31 09:11:23;;;;;;;8.32;7.82;;;;;;;4.44;79.27;99733.75;5053775;28;20102;-65
2022/01/31 09:13:49;;;;;;;8.35;7.85;;;;;;;5.06;77.65;99731.75;5050904;28;20040;-65
2022/01/31 09:16:15;;;;;;;7.20;6.90;;;;;;;5.82;74.47;99728.97;5052442;28;20048;-65
2022/01/31 09:18:41;;;;;;;7.90;7.50;;;;;;;6.99;69.32;99721.56;5049695;28;20052;-65
2022/01/31 09:21:07;;;;;;;7.97;7.57;;;;;;;8.74;62.09;99722.41;5048639;28;20078;-66
2022/01/31 09:23:32;;;;;;;7.97;7.57;;;;;;;6.41;69.68;99712.19;5052148;28;20033;-64
2022/01/31 09:25:58;;;;;;;7.57;7.18;;;;;;;6.67;67.05;99710.13;5048578;28;20035;-64
2022/01/31 09:28:24;;;;;;;8.27;7.88;;;;;;;7.83;64.34;99712.81;5052107;28;20119;-64
2022/01/31 09:30:52;;;;;;;7.95;7.55;;;;;;;12.07;53.09;99708.69;5050896;28;20028;-65
2022/01/31 09:33:18;;;;;;;7.72;7.32;;;;;;;12.41;48.08;99697.00;5053007;28;20060;-66
2022/01/31 09:35:44;;;;;;;8.18;7.78;;;;;;;12.91;49.05;99705.28;5051832;28;20048;-65
2022/01/31 09:38:13;;;;;;;7.10;6.80;;;;;;;11.98;49.23;99697.44;5050531;28;20032;-64
2022/01/31 09:40:40;;;;;;;7.90;7.50;;;;;;;13.26;44.99;99695.13;5047397;28;20025;-66
2022/01/31 09:48:40;;;;;;;7.82;7.43;;;;;;;10.02;52.66;99695.28;5044285;28;20028;-64
2022/01/31 09:51:11;;;;;;;8.32;7.93;;;;;;;9.11;53.90;99689.72;5050751;28;20709;-66
2022/01/31 09:53:43;;;;;;;8.20;7.80;;;;;;;8.76;53.80;99670.16;5040952;28;20041;-65
2022/01/31 09:56:10;;;;;;;8.45;8.05;;;;;;;8.23;54.47;99684.41;5036284;28;20030;-66
2022/01/31 09:58:37;;;;;;;9.25;8.75;;;;;;;8.04;54.42;99683.91;5052912;28;20020;-64
2022/01/31 10:01:09;;;;;;;9.13;8.63;;;;;;;8.23;54.75;99684.41;5049792;28;20028;-65
2022/01/31 10:03:48;;;;;;;9.15;8.65;;;;;;;7.59;54.66;99681.31;5052070;28;20043;-65
2022/01/31 10:06:26;;;;;;;8.82;8.32;;;;;;;7.65;53.35;99676.16;5048876;28;20055;-66
2022/01/31 10:09:17;;;;;;;9.07;8.57;;;;;;;7.63;53.87;99674.66;5038874;28;20028;-65
2022/01/31 10:11:53;;;;;;;10.25;9.65;;;;;;;7.23;54.92;99678.41;5052430;28;20025;-64
2022/01/31 10:17:29;;;;;;;8.45;8.05;;;;;;;7.07;54.68;99668.78;5048157;28;20102;-65
2022/01/31 10:19:58;;;;;;;8.90;8.40;;;;;;;6.88;51.16;99673.47;5050743;28;20116;-65
2022/01/31 10:22:26;;;;;;;8.05;7.65;;;;;;;7.10;50.94;99671.88;5052334;28;20064;-65
2022/01/31 10:24:54;;;;;;;8.90;8.40;;;;;;;6.82;51.54;99663.59;5051096;28;20033;-65
2022/01/31 10:27:23;;;;;;;9.38;8.82;;;;;;;6.51;50.03;99668.00;5051159;28;20388;-65
2022/01/31 10:29:51;;;;;;;9.70;9.10;;;;;;;6.52;48.76;99672.28;5041671;28;20038;-65
2022/01/31 10:32:26;;;;;;;10.02;9.43;;;;;;;6.80;50.29;99686.69;5049607;28;20510;-65
2022/01/31 10:34:55;;;;;;;9.27;8.77;;;;;;;6.99;49.28;99676.75;5051230;28;20040;-65
2022/01/31 10:37:24;;;;;;;10.40;9.70;;;;;;;7.02;48.78;99679.84;5050917;28;20024;-65
2022/01/31 10:53:45;;;;;;;7.90;7.50;;;;;;;7.45;42.60;99635.41;5056804;28;20407;-67
2022/01/31 10:56:11;;;;;;;8.43;8.00;;;;;;;7.07;41.15;99623.94;5055361;28;20033;-64
2022/01/31 10:58:55;;;;;;;8.63;8.13;;;;;;;7.12;41.63;99621.59;5054187;28;20108;-65
2022/01/31 11:01:28;;;;;;;8.23;7.82;;;;;;;6.91;41.02;99620.41;5055813;28;20036;-65
2022/01/31 11:03:54;;;;;;;8.60;8.13;;;;;;;7.24;41.75;99617.56;5044946;28;20033;-65
2022/01/31 11:06:23;;;;;;;9.93;9.32;;;;;;;7.18;42.08;99618.25;5054344;28;20025;-65
2022/01/31 11:08:49;;;;;;;8.90;8.40;;;;;;;7.09;41.29;99619.31;5053530;28;20060;-65
2022/01/31 11:11:14;;;;;;;7.80;7.40;;;;;;;7.41;42.84;99621.72;5050779;28;20029;-65
2022/01/31 11:13:40;;;;;;;9.45;8.88;;;;;;;7.42;42.10;99625.22;5054488;28;20549;-64
2022/01/31 11:16:07;;;;;;;9.25;8.75;;;;;;;7.31;41.40;99631.69;5055664;28;20021;-66
2022/01/31 11:18:35;;;;;;;8.15;7.75;;;;;;;7.50;40.44;99613.75;5054463;28;20029;-65
2022/01/31 11:21:04;;;;;;;7.47;7.15;;;;;;;7.74;40.62;99624.94;5055183;28;20045;-65
2022/01/31 11:23:33;;;;;;;8.20;7.80;;;;;;;7.57;39.40;99622.63;5055262;28;20483;-66
2022/01/31 11:26:01;;;;;;;9.18;8.65;;;;;;;8.07;40.28;99611.41;5038164;28;20026;-65
2022/01/31 11:28:30;;;;;;;8.63;8.13;;;;;;;7.80;38.95;99607.56;5038121;28;20104;-65
2022/01/31 11:30:55;;;;;;;9.15;8.65;;;;;;;7.79;37.79;99608.56;5047944;28;20494;-64
2022/01/31 11:33:22;;;;;;;8.73;8.23;;;;;;;8.07;37.86;99618.50;5054490;28;20040;-65
2022/01/31 11:35:50;;;;;;;9.35;8.82;;;;;;;8.12;38.26;99613.50;5054383;28;20036;-65
2022/01/31 11:38:17;;;;;;;8.50;8.05;;;;;;;7.97;38.99;99601.13;5054444;28;20147;-66
2022/01/31 11:40:43;;;;;;;8.73;8.23;;;;;;;7.67;39.15;99610.81;5054253;28;20021;-65
2022/01/31 11:43:10;;;;;;;8.98;8.48;;;;;;;7.34;39.68;99601.50;5054070;28;20028;-64
2022/01/31 11:45:39;;;;;;;8.20;7.80;;;;;;;7.47;39.40;99618.38;5046547;28;20060;-64
2022/01/31 11:48:10;;;;;;;8.95;8.45;;;;;;;7.23;40.29;99605.38;5053411;28;20025;-65
2022/01/31 11:50:44;;;;;;;8.27;7.88;;;;;;;7.31;40.35;99607.94;5054332;28;20039;-66
2022/01/31 11:53:10;;;;;;;;;;;;;;;7.07;40.28;99611.59;5056026;28;20017;-67
2022/01/31 11:55:39;;;;;;;8.20;7.80;;;;;;;7.11;40.73;99612.84;5055442;28;20030;-65
2022/01/31 11:58:12;;;;;;;9.05;8.55;;;;;;;7.54;40.62;99604.47;5053476;28;20434;-63
2022/01/31 12:00:40;;;;;;;8.23;7.82;;;;;;;7.00;39.34;99609.81;5043981;28;20432;-65
2022/01/31 12:03:15;;;;;;;8.30;7.88;;;;;;;7.18;39.86;99605.06;5053450;28;20085;-63
2022/01/31 12:05:43;;;;;;;7.78;7.40;;;;;;;7.12;40.56;99603.97;5053441;28;20025;-65
2022/01/31 12:08:18;;;;;;;7.70;7.35;;;;;;;6.86;39.52;99612.19;5053639;28;20104;-64